createdAt,value
2022-07-27T00:00:15.288Z,100.00
2022-07-27T00:07:03.412Z,100.00
2022-07-27T00:09:32.157Z,100.00
2022-07-27T00:12:37.039Z,100.00
2022-07-27T00:15:24.960Z,100.00
2022-07-27T00:19:07.472Z,100.00
2022-07-27T00:25:02.335Z,100.00
2022-07-27T00:28:07.174Z,100.00
2022-07-27T00:33:23.532Z,100.00
2022-07-27T00:38:40.326Z,100.00
2022-07-27T00:41:46.790Z,100.00
2022-07-27T00:44:33.639Z,100.00
2022-07-27T00:47:20.948Z,100.00
2022-07-27T00:49:49.865Z,100.00
2022-07-27T00:52:36.796Z,100.00
2022-07-27T00:55:24.695Z,100.00
2022-07-27T00:58:29.861Z,100.00
2022-07-27T01:01:35.613Z,100.00
2022-07-27T01:04:41.808Z,100.00
2022-07-27T01:07:16.704Z,100.00
2022-07-27T01:10:05.223Z,100.00
2022-07-27T01:15:59.165Z,100.00
2022-07-27T01:18:30.418Z,100.00
2022-07-27T01:21:01.133Z,100.00
2022-07-27T01:23:48.537Z,100.00
2022-07-27T01:26:38.303Z,100.00
2022-07-27T01:32:13.499Z,100.00
2022-07-27T01:38:26.256Z,100.00
2022-07-27T01:44:24.418Z,100.00
2022-07-27T01:47:30.789Z,100.00
2022-07-27T01:50:18.290Z,100.00
2022-07-27T01:53:25.335Z,100.00
2022-07-27T01:55:54.968Z,100.00
2022-07-27T01:58:42.261Z,100.00
2022-07-27T02:01:29.549Z,100.00
2022-07-27T02:04:34.833Z,100.00
2022-07-27T02:07:21.726Z,100.00
2022-07-27T02:10:46.002Z,100.00
2022-07-27T02:13:22.933Z,100.00
2022-07-27T02:15:54.667Z,100.00
2022-07-27T02:22:07.406Z,100.00
2022-07-27T02:25:14.253Z,100.00
2022-07-27T02:31:44.642Z,100.00
2022-07-27T02:34:51.278Z,100.00
2022-07-27T02:37:56.682Z,100.00
2022-07-27T02:40:45.230Z,100.00
2022-07-27T02:43:17.366Z,100.00
2022-07-27T02:46:23.709Z,100.00
2022-07-27T02:49:29.132Z,100.00
2022-07-27T02:55:36.738Z,100.00
2022-07-27T03:01:49.160Z,100.00
2022-07-27T03:05:15.856Z,100.00
2022-07-27T03:11:10.036Z,100.00
2022-07-27T03:14:15.822Z,100.00
2022-07-27T03:17:02.573Z,100.00
2022-07-27T03:20:08.825Z,100.00
2022-07-27T03:22:58.262Z,100.00
2022-07-27T03:25:45.585Z,100.00
2022-07-27T03:28:34.105Z,100.00
2022-07-27T03:31:22.521Z,100.00
2022-07-27T03:34:10.511Z,100.00
2022-07-27T03:37:01.721Z,100.00
2022-07-27T03:39:49.236Z,100.00
2022-07-27T03:45:26.040Z,100.00
2022-07-27T03:47:55.110Z,100.00
2022-07-27T03:51:04.028Z,100.00
2022-07-27T03:53:51.125Z,100.00
2022-07-27T03:56:19.917Z,100.00
2022-07-27T04:02:13.127Z,100.00
2022-07-27T04:05:02.297Z,100.00
2022-07-27T04:10:55.015Z,100.00
2022-07-27T04:13:45.538Z,100.00
2022-07-27T04:16:16.719Z,100.00
2022-07-27T04:19:24.433Z,100.00
2022-07-27T04:22:12.276Z,100.00
2022-07-27T04:25:17.430Z,100.00
2022-07-27T04:28:05.150Z,100.00
2022-07-27T04:36:26.531Z,100.00
2022-07-27T04:39:32.049Z,100.00
2022-07-27T04:49:29.165Z,100.00
2022-07-27T05:05:02.326Z,100.00
2022-07-27T05:07:30.972Z,100.00
2022-07-27T05:10:36.532Z,100.00
2022-07-27T05:13:41.536Z,100.00
2022-07-27T05:16:30.510Z,100.00
2022-07-27T05:19:18.288Z,100.00
2022-07-27T05:22:24.292Z,100.00
2022-07-27T05:28:18.830Z,100.00
2022-07-27T05:34:30.818Z,100.00
2022-07-27T05:37:54.927Z,100.00
2022-07-27T05:41:00.367Z,100.00
2022-07-27T05:47:12.707Z,100.00
2022-07-27T05:49:41.540Z,100.00
2022-07-27T05:52:28.182Z,100.00
2022-07-27T05:55:15.598Z,100.00
2022-07-27T05:58:02.668Z,100.00
2022-07-27T06:01:09.330Z,98.27
2022-07-27T06:04:15.955Z,97.18
2022-07-27T06:07:21.469Z,95.34
2022-07-27T06:13:14.786Z,93.26
2022-07-27T06:16:20.229Z,90.57
2022-07-27T06:18:48.972Z,88.68
2022-07-27T06:21:36.075Z,88.07
2022-07-27T06:24:42.026Z,86.99
2022-07-27T06:27:10.714Z,87.08
2022-07-27T06:30:16.334Z,86.36
2022-07-27T06:33:04.851Z,84.83
2022-07-27T06:39:00.328Z,82.36
2022-07-27T06:44:56.026Z,80.47
2022-07-27T06:48:01.431Z,78.65
2022-07-27T06:51:08.021Z,71.26
2022-07-27T06:53:55.705Z,69.53
2022-07-27T06:56:42.349Z,65.83
2022-07-27T07:00:09.082Z,63.80
2022-07-27T07:03:15.426Z,62.61
2022-07-27T07:06:21.216Z,62.13
2022-07-27T07:08:50.194Z,60.31
2022-07-27T07:15:00.493Z,60.40
2022-07-27T07:17:29.475Z,61.23
2022-07-27T07:20:16.404Z,60.71
2022-07-27T07:22:45.410Z,60.05
2022-07-27T07:25:50.307Z,63.21
2022-07-27T07:28:21.528Z,66.13
2022-07-27T07:31:26.748Z,68.27
2022-07-27T07:34:15.355Z,67.03
2022-07-27T07:37:57.254Z,66.71
2022-07-27T07:40:45.084Z,67.68
2022-07-27T07:43:33.106Z,68.57
2022-07-27T07:56:33.875Z,82.54
2022-07-27T08:03:04.173Z,88.27
2022-07-27T08:05:51.670Z,89.07
2022-07-27T08:15:10.186Z,86.04
2022-07-27T08:18:16.678Z,82.55
2022-07-27T08:21:04.598Z,83.05
2022-07-27T08:23:52.509Z,81.19
2022-07-27T08:26:39.611Z,76.75
2022-07-27T08:29:44.935Z,75.02
2022-07-27T08:35:39.130Z,74.36
2022-07-27T08:38:28.829Z,69.80
2022-07-27T08:41:17.967Z,64.59
2022-07-27T08:47:52.067Z,62.10
2022-07-27T08:50:38.955Z,65.77
2022-07-27T08:53:53.596Z,67.60
2022-07-27T08:56:23.612Z,69.73
2022-07-27T09:01:59.245Z,73.95
2022-07-27T09:04:47.258Z,72.44
2022-07-27T09:13:46.606Z,68.87
2022-07-27T09:18:12.190Z,69.50
2022-07-27T09:23:28.177Z,74.32
2022-07-27T09:29:19.492Z,65.87
2022-07-27T09:32:26.320Z,66.14
2022-07-27T09:34:55.672Z,63.79
2022-07-27T09:37:43.781Z,63.71
2022-07-27T09:46:39.348Z,56.48
2022-07-27T09:49:28.290Z,54.91
2022-07-27T09:54:46.965Z,55.13
2022-07-27T10:00:55.273Z,51.87
2022-07-27T10:03:42.493Z,53.27
2022-07-27T10:07:12.463Z,52.59
2022-07-27T10:13:27.396Z,49.74
2022-07-27T10:15:57.437Z,51.46
2022-07-27T10:19:26.410Z,50.97
2022-07-27T10:21:55.644Z,48.92
2022-07-27T10:27:27.908Z,47.26
2022-07-27T10:30:17.164Z,46.36
2022-07-27T10:40:57.029Z,47.20
2022-07-27T10:47:07.759Z,46.86
2022-07-27T10:49:40.346Z,46.46
2022-07-27T10:55:53.519Z,45.60
2022-07-27T11:02:38.800Z,44.35
2022-07-27T11:05:59.090Z,42.98
2022-07-27T11:12:36.026Z,38.00
2022-07-27T11:15:06.464Z,37.43
2022-07-27T11:18:15.199Z,37.43
2022-07-27T11:21:42.113Z,35.91
2022-07-27T11:24:47.928Z,37.14
2022-07-27T11:27:19.958Z,36.48
2022-07-27T11:30:27.580Z,36.76
2022-07-27T11:36:38.749Z,36.39
2022-07-27T11:39:59.660Z,36.29
2022-07-27T11:46:15.400Z,37.96
2022-07-27T11:49:28.048Z,38.50
2022-07-27T11:52:17.087Z,39.36
2022-07-27T11:55:04.331Z,39.66
2022-07-27T11:58:10.349Z,40.91
2022-07-27T12:00:57.645Z,41.55
2022-07-27T12:07:15.507Z,41.21
2022-07-27T12:10:21.352Z,42.19
2022-07-27T12:12:50.481Z,42.30
2022-07-27T12:18:52.733Z,43.80
2022-07-27T12:21:39.572Z,43.43
2022-07-27T12:24:44.943Z,43.59
2022-07-27T12:33:38.279Z,42.94
2022-07-27T12:36:27.791Z,41.79
2022-07-27T12:39:15.674Z,41.32
2022-07-27T12:42:02.965Z,42.37
2022-07-27T12:44:34.370Z,42.76
2022-07-27T12:47:23.920Z,42.40
2022-07-27T12:50:50.342Z,42.94
2022-07-27T12:53:55.896Z,42.54
2022-07-27T12:56:27.035Z,40.85
2022-07-27T13:06:22.199Z,40.97
2022-07-27T13:09:09.878Z,40.53
2022-07-27T13:12:18.403Z,40.17
2022-07-27T13:15:08.302Z,40.59
2022-07-27T13:18:19.883Z,40.53
2022-07-27T13:21:09.849Z,40.41
2022-07-27T13:24:13.959Z,41.17
2022-07-27T13:27:39.072Z,41.51
2022-07-27T13:30:44.533Z,41.98
2022-07-27T13:33:50.580Z,41.59
2022-07-27T13:36:40.028Z,40.79
2022-07-27T13:39:44.757Z,40.48
2022-07-27T13:42:50.466Z,37.86
2022-07-27T13:48:24.718Z,38.81
2022-07-27T13:51:12.184Z,38.42
2022-07-27T13:53:40.997Z,37.82
2022-07-27T14:05:27.662Z,37.53
2022-07-27T14:08:16.143Z,37.56
2022-07-27T14:10:45.743Z,37.78
2022-07-27T14:13:33.911Z,37.60
2022-07-27T14:16:21.734Z,38.44
2022-07-27T14:19:12.643Z,39.22
2022-07-27T14:22:37.115Z,41.51
2022-07-27T14:25:08.225Z,44.69
2022-07-27T14:27:57.694Z,47.02
2022-07-27T14:31:06.670Z,50.12
2022-07-27T14:33:56.047Z,47.81
2022-07-27T14:36:44.073Z,57.19
2022-07-27T14:45:46.346Z,57.33
2022-07-27T14:52:01.054Z,64.38
2022-07-27T14:54:33.612Z,72.32
2022-07-27T14:57:25.089Z,76.25
2022-07-27T15:00:15.939Z,82.89
2022-07-27T15:03:21.490Z,85.67
2022-07-27T15:11:44.575Z,100.00
2022-07-27T15:14:32.173Z,100.00
2022-07-27T15:17:03.366Z,100.00
2022-07-27T15:19:51.112Z,100.00
2022-07-27T15:23:51.760Z,100.00
2022-07-27T15:26:39.244Z,100.00
2022-07-27T15:29:27.543Z,100.00
2022-07-27T15:32:14.781Z,100.00
2022-07-27T15:35:04.725Z,100.00
2022-07-27T15:37:33.561Z,100.00
2022-07-27T15:40:41.461Z,100.00
2022-07-27T15:43:48.574Z,100.00
2022-07-27T15:46:35.851Z,100.00
2022-07-27T15:49:05.084Z,100.00
2022-07-27T15:51:33.944Z,100.00
2022-07-27T15:54:22.256Z,100.00
2022-07-27T15:57:28.906Z,100.00
2022-07-27T16:03:05.103Z,100.00
2022-07-27T16:06:10.606Z,100.00
2022-07-27T16:08:57.281Z,100.00
2022-07-27T16:11:44.516Z,94.74
2022-07-27T16:14:32.431Z,87.70
2022-07-27T16:17:57.544Z,88.88
2022-07-27T16:20:44.592Z,91.18
2022-07-27T16:23:31.942Z,90.94
2022-07-27T16:26:56.247Z,88.11
2022-07-27T16:29:26.692Z,88.58
2022-07-27T16:35:10.569Z,86.05
2022-07-27T16:38:16.078Z,84.74
2022-07-27T16:41:05.700Z,82.08
2022-07-27T16:43:38.738Z,79.63
2022-07-27T16:49:15.793Z,77.40
2022-07-27T16:51:45.560Z,75.79
2022-07-27T16:54:50.655Z,74.44
2022-07-27T17:00:43.860Z,74.92
2022-07-27T17:03:12.811Z,73.70
2022-07-27T17:05:41.570Z,72.50
2022-07-27T17:08:48.059Z,68.46
2022-07-27T17:11:37.313Z,65.23
2022-07-27T17:14:42.831Z,64.42
2022-07-27T17:17:30.665Z,62.97
2022-07-27T17:20:35.880Z,62.61
2022-07-27T17:23:41.815Z,61.88
2022-07-27T17:26:12.077Z,61.80
2022-07-27T17:28:59.771Z,61.32
2022-07-27T17:34:53.176Z,61.37
2022-07-27T17:38:17.962Z,62.73
2022-07-27T17:50:58.562Z,63.08
2022-07-27T17:56:52.590Z,65.17
2022-07-27T17:59:40.529Z,66.14
2022-07-27T18:05:52.119Z,78.49
2022-07-27T18:08:21.518Z,87.77
2022-07-27T18:11:44.790Z,97.38
2022-07-27T18:14:32.062Z,100.00
2022-07-27T18:17:38.914Z,100.00
2022-07-27T18:20:44.608Z,100.00
2022-07-27T18:23:33.287Z,100.00
2022-07-27T18:26:21.273Z,100.00
2022-07-27T18:29:27.719Z,100.00
2022-07-27T18:32:15.746Z,100.00
2022-07-27T18:37:52.322Z,100.00
2022-07-27T18:44:41.780Z,100.00
2022-07-27T18:47:49.363Z,100.00
2022-07-27T18:50:39.544Z,100.00
2022-07-27T18:53:27.571Z,100.00
2022-07-27T18:56:15.607Z,100.00
2022-07-27T18:58:44.472Z,100.00
2022-07-27T19:01:31.748Z,100.00
2022-07-27T19:04:37.897Z,100.00
2022-07-27T19:07:30.242Z,100.00
2022-07-27T19:10:19.529Z,100.00
2022-07-27T19:13:24.984Z,100.00
2022-07-27T19:16:11.754Z,100.00
2022-07-27T19:18:59.040Z,100.00
2022-07-27T19:21:28.864Z,100.00
2022-07-27T19:24:16.148Z,100.00
2022-07-27T19:27:21.645Z,100.00
2022-07-27T19:30:12.079Z,100.00
2022-07-27T19:32:41.278Z,100.00
2022-07-27T19:36:05.376Z,100.00
2022-07-27T19:38:34.663Z,100.00
2022-07-27T19:41:26.454Z,100.00
2022-07-27T19:43:56.325Z,100.00
2022-07-27T19:47:01.784Z,100.00
2022-07-27T19:49:31.742Z,100.00
2022-07-27T19:52:02.449Z,100.00
2022-07-27T19:55:09.363Z,100.00
2022-07-27T19:57:38.374Z,100.00
2022-07-27T20:00:10.587Z,100.00
2022-07-27T20:03:01.009Z,100.00
2022-07-27T20:06:08.792Z,100.00
2022-07-27T20:08:38.295Z,100.00
2022-07-27T20:11:44.703Z,100.00
2022-07-27T20:14:50.025Z,100.00
2022-07-27T20:17:55.987Z,100.00
2022-07-27T20:20:43.240Z,100.00
2022-07-27T20:23:30.937Z,100.00
2022-07-27T20:26:37.312Z,100.00
2022-07-27T20:29:29.086Z,100.00
2022-07-27T20:32:56.307Z,100.00
2022-07-27T20:35:37.530Z,100.00
2022-07-27T20:41:52.688Z,100.00
2022-07-27T20:47:49.097Z,100.00
2022-07-27T20:50:53.915Z,100.00
2022-07-27T20:53:58.904Z,100.00
2022-07-27T20:59:53.289Z,100.00
2022-07-27T21:02:22.291Z,100.00
2022-07-27T21:08:52.420Z,100.00
2022-07-27T21:11:21.244Z,100.00
2022-07-27T21:15:03.201Z,100.00
2022-07-27T21:17:51.077Z,100.00
2022-07-27T21:24:03.815Z,100.00
2022-07-27T21:27:09.762Z,100.00
2022-07-27T21:36:44.614Z,100.00
2022-07-27T21:39:49.822Z,100.00
2022-07-27T21:42:37.375Z,100.00
2022-07-27T21:45:26.469Z,100.00
2022-07-27T21:47:55.983Z,100.00
2022-07-27T21:54:25.713Z,100.00
2022-07-27T21:56:54.673Z,100.00
2022-07-27T21:59:23.682Z,100.00
2022-07-27T22:05:16.735Z,100.00
2022-07-27T22:11:46.209Z,100.00
2022-07-27T22:14:33.781Z,100.00
2022-07-27T22:17:20.550Z,100.00
2022-07-27T22:19:49.457Z,100.00
2022-07-27T22:22:36.456Z,100.00
2022-07-27T22:25:41.833Z,100.00
2022-07-27T22:28:32.087Z,100.00
2022-07-27T22:34:09.735Z,100.00
2022-07-27T22:36:38.764Z,100.00
2022-07-27T22:39:27.026Z,100.00
2022-07-27T22:41:56.578Z,100.00
2022-07-27T22:47:31.579Z,100.00
2022-07-27T22:53:05.755Z,100.00
2022-07-27T22:59:02.007Z,100.00
2022-07-27T23:05:15.719Z,100.00
2022-07-27T23:11:09.288Z,100.00
2022-07-27T23:17:02.183Z,100.00
2022-07-27T23:20:07.213Z,100.00
2022-07-27T23:23:53.619Z,100.00
2022-07-27T23:30:07.199Z,100.00
2022-07-27T23:32:36.408Z,100.00
2022-07-27T23:35:25.270Z,100.00
2022-07-27T23:45:57.490Z,100.00
2022-07-27T23:51:49.687Z,100.00
2022-07-27T23:55:13.340Z,100.00
2022-07-27T23:58:38.583Z,100.00
